createdAt,value
2023-05-10T00:00:24.984Z,92202.00
2023-05-10T00:01:24.990Z,92202.00
2023-05-10T00:02:25.060Z,92202.00
2023-05-10T00:03:25.133Z,92202.00
2023-05-10T00:04:25.052Z,92204.00
2023-05-10T00:05:25.056Z,92202.00
2023-05-10T00:06:25.080Z,92200.00
2023-05-10T00:07:25.093Z,92200.00
2023-05-10T00:08:25.107Z,92198.00
2023-05-10T00:09:25.123Z,92198.00
2023-05-10T00:10:25.104Z,92200.00
2023-05-10T00:11:25.105Z,92198.00
2023-05-10T00:12:25.095Z,92202.00
2023-05-10T00:13:25.235Z,92196.00
2023-05-10T00:14:25.103Z,92196.00
2023-05-10T00:15:25.081Z,92196.00
2023-05-10T00:16:25.154Z,92198.00
2023-05-10T00:17:25.077Z,92198.00
2023-05-10T00:18:25.081Z,92194.00
2023-05-10T00:19:25.092Z,92196.00
2023-05-10T00:20:25.090Z,92196.00
2023-05-10T00:21:25.088Z,92194.00
2023-05-10T00:22:25.073Z,92194.00
2023-05-10T00:23:25.053Z,92198.00
2023-05-10T00:24:25.064Z,92196.00
2023-05-10T00:25:25.042Z,92196.00
2023-05-10T00:26:25.019Z,92194.00
2023-05-10T00:27:25.005Z,92198.00
2023-05-10T00:28:24.988Z,92196.00
2023-05-10T00:29:24.982Z,92194.00
2023-05-10T00:30:24.967Z,92194.00
2023-05-10T00:31:24.973Z,92196.00
2023-05-10T00:32:25.052Z,92194.00
2023-05-10T00:33:24.949Z,92196.00
2023-05-10T00:34:24.946Z,92194.00
2023-05-10T00:35:24.945Z,92194.00
2023-05-10T00:36:24.922Z,92196.00
2023-05-10T00:37:24.944Z,92196.00
2023-05-10T00:38:24.967Z,92194.00
2023-05-10T00:39:24.975Z,92196.00
2023-05-10T00:40:24.976Z,92198.00
2023-05-10T00:41:24.955Z,92196.00
2023-05-10T00:42:24.957Z,92194.00
2023-05-10T00:43:24.949Z,92196.00
2023-05-10T00:44:24.932Z,92196.00
2023-05-10T00:45:24.949Z,92194.00
2023-05-10T00:46:24.970Z,92196.00
2023-05-10T00:47:24.955Z,92194.00
2023-05-10T00:48:24.918Z,92194.00
2023-05-10T00:49:24.925Z,92194.00
2023-05-10T00:50:24.926Z,92196.00
2023-05-10T00:51:24.932Z,92198.00
2023-05-10T00:52:24.920Z,92194.00
2023-05-10T00:53:24.918Z,92194.00
2023-05-10T00:54:24.926Z,92196.00
2023-05-10T00:55:24.926Z,92196.00
2023-05-10T00:56:24.877Z,92196.00
2023-05-10T00:57:24.861Z,92200.00
2023-05-10T00:58:24.887Z,92198.00
2023-05-10T00:59:24.871Z,92196.00
2023-05-10T01:00:24.882Z,92202.00
2023-05-10T01:01:24.935Z,92198.00
2023-05-10T01:02:24.978Z,92200.00
2023-05-10T01:03:24.942Z,92198.00
2023-05-10T01:04:24.924Z,92198.00
2023-05-10T01:05:25.019Z,92198.00
2023-05-10T01:06:24.867Z,92196.00
2023-05-10T01:07:24.857Z,92196.00
2023-05-10T01:08:24.843Z,92194.00
2023-05-10T01:09:24.824Z,92196.00
2023-05-10T01:10:24.828Z,92196.00
2023-05-10T01:11:24.803Z,92198.00
2023-05-10T01:12:24.834Z,92198.00
2023-05-10T01:13:24.890Z,92198.00
2023-05-10T01:14:24.779Z,92200.00
2023-05-10T01:15:24.760Z,92198.00
2023-05-10T01:16:24.868Z,92196.00
2023-05-10T01:17:24.735Z,92198.00
2023-05-10T01:18:24.720Z,92192.00
2023-05-10T01:19:24.743Z,92190.00
2023-05-10T01:20:24.758Z,92196.00
2023-05-10T01:21:24.744Z,92196.00
2023-05-10T01:22:24.736Z,92194.00
2023-05-10T01:23:24.724Z,92198.00
2023-05-10T01:24:24.740Z,92198.00
2023-05-10T01:25:24.721Z,92200.00
2023-05-10T01:26:24.713Z,92200.00
2023-05-10T01:27:24.715Z,92196.00
2023-05-10T01:28:24.693Z,92198.00
2023-05-10T01:29:24.679Z,92198.00
2023-05-10T01:30:24.907Z,92200.00
2023-05-10T01:31:24.743Z,92196.00
2023-05-10T01:32:24.646Z,92200.00
2023-05-10T01:33:24.631Z,92200.00
2023-05-10T01:34:24.595Z,92202.00
2023-05-10T01:35:24.593Z,92204.00
2023-05-10T01:36:24.599Z,92200.00
2023-05-10T01:37:24.586Z,92200.00
2023-05-10T01:38:24.584Z,92200.00
2023-05-10T01:39:24.552Z,92200.00
2023-05-10T01:40:24.534Z,92200.00
2023-05-10T01:41:24.511Z,92198.00
2023-05-10T01:42:24.476Z,92202.00
2023-05-10T01:43:24.446Z,92200.00
2023-05-10T01:44:24.416Z,92198.00
2023-05-10T01:45:24.391Z,92202.00
2023-05-10T01:46:24.398Z,92202.00
2023-05-10T01:47:24.387Z,92200.00
2023-05-10T01:48:24.345Z,92198.00
2023-05-10T01:49:24.319Z,92200.00
2023-05-10T01:50:24.318Z,92202.00
2023-05-10T01:51:24.299Z,92202.00
2023-05-10T01:52:24.265Z,92200.00
2023-05-10T01:53:24.259Z,92202.00
2023-05-10T01:54:24.244Z,92202.00
2023-05-10T01:55:24.211Z,92202.00
2023-05-10T01:56:24.191Z,92204.00
2023-05-10T01:57:24.161Z,92206.00
2023-05-10T01:58:24.128Z,92204.00
2023-05-10T01:59:24.118Z,92206.00
2023-05-10T02:00:24.088Z,92208.00
2023-05-10T02:01:24.116Z,92206.00
2023-05-10T02:02:24.087Z,92208.00
2023-05-10T02:03:24.112Z,92206.00
2023-05-10T02:04:24.020Z,92208.00
2023-05-10T02:05:24.002Z,92208.00
2023-05-10T02:06:23.970Z,92208.00
2023-05-10T02:07:23.944Z,92210.00
2023-05-10T02:08:23.952Z,92210.00
2023-05-10T02:09:23.917Z,92211.00
2023-05-10T02:10:23.876Z,92211.00
2023-05-10T02:11:23.859Z,92213.00
2023-05-10T02:12:23.846Z,92217.00
2023-05-10T02:13:23.832Z,92215.00
2023-05-10T02:14:23.793Z,92215.00
2023-05-10T02:15:23.759Z,92217.00
2023-05-10T02:16:23.762Z,92219.00
2023-05-10T02:17:23.726Z,92221.00
2023-05-10T02:18:23.686Z,92219.00
2023-05-10T02:19:23.664Z,92217.00
2023-05-10T02:20:23.645Z,92219.00
2023-05-10T02:21:23.645Z,92221.00
2023-05-10T02:22:23.604Z,92219.00
2023-05-10T02:23:23.593Z,92219.00
2023-05-10T02:24:23.564Z,92223.00
2023-05-10T02:25:23.536Z,92225.00
2023-05-10T02:26:23.510Z,92227.00
2023-05-10T02:27:23.502Z,92225.00
2023-05-10T02:28:23.488Z,92225.00
2023-05-10T02:29:23.494Z,92227.00
2023-05-10T02:30:23.461Z,92225.00
2023-05-10T02:31:23.471Z,92227.00
2023-05-10T02:32:23.491Z,92231.00
2023-05-10T02:33:23.460Z,92231.00
2023-05-10T02:34:23.430Z,92233.00
2023-05-10T02:35:23.410Z,92231.00
2023-05-10T02:36:23.382Z,92231.00
2023-05-10T02:37:23.359Z,92233.00
2023-05-10T02:38:23.349Z,92233.00
2023-05-10T02:39:23.324Z,92235.00
2023-05-10T02:40:23.302Z,92233.00
2023-05-10T02:41:23.285Z,92233.00
2023-05-10T02:42:23.262Z,92233.00
2023-05-10T02:43:23.231Z,92233.00
2023-05-10T02:44:23.218Z,92233.00
2023-05-10T02:45:23.216Z,92233.00
2023-05-10T02:46:23.212Z,92235.00
2023-05-10T02:47:23.169Z,92233.00
2023-05-10T02:48:23.173Z,92231.00
2023-05-10T02:49:23.161Z,92233.00
2023-05-10T02:50:23.161Z,92235.00
2023-05-10T02:51:23.147Z,92237.00
2023-05-10T02:52:23.141Z,92235.00
2023-05-10T02:53:23.132Z,92237.00
2023-05-10T02:54:23.137Z,92235.00
2023-05-10T02:55:23.107Z,92235.00
2023-05-10T02:56:23.103Z,92235.00
2023-05-10T02:57:23.098Z,92235.00
2023-05-10T02:58:23.064Z,92235.00
2023-05-10T02:59:23.064Z,92239.00
2023-05-10T03:00:23.046Z,92241.00
2023-05-10T03:01:23.072Z,92241.00
2023-05-10T03:02:23.072Z,92241.00
2023-05-10T03:03:23.032Z,92241.00
2023-05-10T03:04:23.028Z,92239.00
2023-05-10T03:05:22.975Z,92237.00
2023-05-10T03:06:22.962Z,92237.00
2023-05-10T03:07:22.943Z,92237.00
2023-05-10T03:08:22.938Z,92237.00
2023-05-10T03:09:22.934Z,92237.00
2023-05-10T03:10:22.900Z,92237.00
2023-05-10T03:11:22.893Z,92237.00
2023-05-10T03:12:22.892Z,92237.00
2023-05-10T03:13:22.932Z,92237.00
2023-05-10T03:14:22.845Z,92239.00
2023-05-10T03:15:22.839Z,92239.00
2023-05-10T03:16:22.991Z,92237.00
2023-05-10T03:17:22.898Z,92235.00
2023-05-10T03:18:22.805Z,92239.00
2023-05-10T03:19:22.784Z,92239.00
2023-05-10T03:20:22.760Z,92241.00
2023-05-10T03:21:22.753Z,92241.00
2023-05-10T03:22:22.721Z,92243.00
2023-05-10T03:23:22.706Z,92241.00
2023-05-10T03:24:22.700Z,92243.00
2023-05-10T03:25:22.699Z,92243.00
2023-05-10T03:26:22.667Z,92245.00
2023-05-10T03:27:22.671Z,92245.00
2023-05-10T03:28:22.642Z,92247.00
2023-05-10T03:29:22.630Z,92249.00
2023-05-10T03:30:22.628Z,92251.00
2023-05-10T03:31:22.599Z,92249.00
2023-05-10T03:32:22.578Z,92253.00
2023-05-10T03:33:22.626Z,92251.00
2023-05-10T03:34:22.525Z,92249.00
2023-05-10T03:35:22.514Z,92247.00
2023-05-10T03:36:22.499Z,92247.00
2023-05-10T03:37:22.486Z,92249.00
2023-05-10T03:38:22.492Z,92251.00
2023-05-10T03:39:22.461Z,92255.00
2023-05-10T03:40:22.459Z,92255.00
2023-05-10T03:41:22.478Z,92255.00
2023-05-10T03:42:22.422Z,92257.00
2023-05-10T03:43:22.418Z,92257.00
2023-05-10T03:44:22.385Z,92258.00
2023-05-10T03:45:22.391Z,92260.00
2023-05-10T03:46:22.396Z,92262.00
2023-05-10T03:47:22.364Z,92262.00
2023-05-10T03:48:22.356Z,92258.00
2023-05-10T03:49:22.343Z,92262.00
2023-05-10T03:50:22.338Z,92262.00
2023-05-10T03:51:22.310Z,92264.00
2023-05-10T03:52:22.309Z,92264.00
2023-05-10T03:53:22.297Z,92264.00
2023-05-10T03:54:22.299Z,92266.00
2023-05-10T03:55:22.270Z,92268.00
2023-05-10T03:56:22.250Z,92268.00
2023-05-10T03:57:22.240Z,92266.00
2023-05-10T03:58:22.220Z,92266.00
2023-05-10T03:59:22.209Z,92266.00
2023-05-10T04:00:22.183Z,92268.00
2023-05-10T04:01:22.180Z,92268.00
2023-05-10T04:02:22.238Z,92266.00
2023-05-10T04:03:22.250Z,92266.00
2023-05-10T04:04:22.159Z,92268.00
2023-05-10T04:05:22.149Z,92270.00
2023-05-10T04:06:22.165Z,92272.00
2023-05-10T04:07:22.117Z,92272.00
2023-05-10T04:08:22.105Z,92268.00
2023-05-10T04:09:22.131Z,92270.00
2023-05-10T04:10:22.104Z,92270.00
2023-05-10T04:11:22.088Z,92274.00
2023-05-10T04:12:22.078Z,92274.00
2023-05-10T04:13:22.166Z,92272.00
2023-05-10T04:14:22.068Z,92270.00
2023-05-10T04:15:22.158Z,92272.00
2023-05-10T04:16:22.072Z,92270.00
2023-05-10T04:17:22.068Z,92270.00
2023-05-10T04:18:21.990Z,92276.00
2023-05-10T04:19:21.988Z,92276.00
2023-05-10T04:20:21.976Z,92272.00
2023-05-10T04:21:21.983Z,92276.00
2023-05-10T04:22:21.991Z,92276.00
2023-05-10T04:23:21.956Z,92278.00
2023-05-10T04:24:21.944Z,92278.00
2023-05-10T04:25:21.929Z,92278.00
2023-05-10T04:26:21.902Z,92278.00
2023-05-10T04:27:21.881Z,92278.00
2023-05-10T04:28:21.864Z,92282.00
2023-05-10T04:29:21.865Z,92280.00
2023-05-10T04:30:21.892Z,92284.00
2023-05-10T04:31:21.924Z,92284.00
2023-05-10T04:32:21.852Z,92282.00
2023-05-10T04:33:21.813Z,92284.00
2023-05-10T04:34:21.813Z,92286.00
2023-05-10T04:35:21.809Z,92284.00
2023-05-10T04:36:21.784Z,92282.00
2023-05-10T04:37:21.773Z,92286.00
2023-05-10T04:38:21.813Z,92288.00
2023-05-10T04:39:21.769Z,92288.00
2023-05-10T04:40:21.743Z,92288.00
2023-05-10T04:41:21.737Z,92288.00
2023-05-10T04:42:21.706Z,92290.00
2023-05-10T04:43:21.703Z,92292.00
2023-05-10T04:44:21.689Z,92292.00
2023-05-10T04:45:21.671Z,92294.00
2023-05-10T04:46:21.682Z,92294.00
2023-05-10T04:47:21.664Z,92290.00
2023-05-10T04:48:21.645Z,92294.00
2023-05-10T04:49:21.634Z,92296.00
2023-05-10T04:50:21.635Z,92294.00
2023-05-10T04:51:21.630Z,92294.00
2023-05-10T04:52:21.622Z,92292.00
2023-05-10T04:53:21.597Z,92296.00
2023-05-10T04:54:21.579Z,92292.00
2023-05-10T04:55:21.567Z,92296.00
2023-05-10T04:56:21.519Z,92298.00
2023-05-10T04:57:21.478Z,92298.00
2023-05-10T04:58:21.451Z,92298.00
2023-05-10T04:59:21.414Z,92298.00
2023-05-10T05:00:21.421Z,92298.00
2023-05-10T05:01:21.428Z,92302.00
2023-05-10T05:02:21.404Z,92304.00
2023-05-10T05:03:21.466Z,92302.00
2023-05-10T05:04:21.295Z,92302.00
2023-05-10T05:05:21.269Z,92302.00
2023-05-10T05:06:21.217Z,92304.00
2023-05-10T05:07:21.181Z,92306.00
2023-05-10T05:08:21.156Z,92306.00
2023-05-10T05:09:21.131Z,92306.00
2023-05-10T05:10:21.103Z,92304.00
2023-05-10T05:11:21.057Z,92304.00
2023-05-10T05:12:21.038Z,92304.00
2023-05-10T05:13:21.032Z,92306.00
2023-05-10T05:14:20.968Z,92306.00
2023-05-10T05:15:20.929Z,92304.00
2023-05-10T05:16:20.951Z,92302.00
2023-05-10T05:17:20.872Z,92302.00
2023-05-10T05:18:20.846Z,92302.00
2023-05-10T05:19:20.798Z,92302.00
2023-05-10T05:20:20.768Z,92302.00
2023-05-10T05:21:20.814Z,92298.00
2023-05-10T05:22:20.744Z,92300.00
2023-05-10T05:23:20.718Z,92298.00
2023-05-10T05:24:20.705Z,92294.00
2023-05-10T05:25:20.666Z,92296.00
2023-05-10T05:26:20.657Z,92300.00
2023-05-10T05:27:20.608Z,92300.00
2023-05-10T05:28:20.579Z,92306.00
2023-05-10T05:29:20.580Z,92304.00
2023-05-10T05:30:20.505Z,92306.00
2023-05-10T05:31:20.575Z,92306.00
2023-05-10T05:32:20.542Z,92304.00
2023-05-10T05:33:20.435Z,92304.00
2023-05-10T05:34:20.428Z,92304.00
2023-05-10T05:35:20.408Z,92304.00
2023-05-10T05:36:20.389Z,92304.00
2023-05-10T05:37:20.405Z,92304.00
2023-05-10T05:38:20.343Z,92300.00
2023-05-10T05:39:20.310Z,92302.00
2023-05-10T05:40:21.190Z,92302.00
2023-05-10T05:41:20.241Z,92304.00
2023-05-10T05:42:20.199Z,92304.00
2023-05-10T05:43:20.178Z,92302.00
2023-05-10T05:44:20.130Z,92304.00
2023-05-10T05:45:20.234Z,92304.00
2023-05-10T05:46:20.179Z,92306.00
2023-05-10T05:47:20.065Z,92308.00
2023-05-10T05:48:20.026Z,92310.00
2023-05-10T05:49:20.015Z,92308.00
2023-05-10T05:50:20.006Z,92310.00
2023-05-10T05:51:20.000Z,92308.00
2023-05-10T05:52:20.680Z,92310.00
2023-05-10T05:53:19.957Z,92310.00
2023-05-10T05:54:19.962Z,92308.00
2023-05-10T05:55:19.956Z,92310.00
2023-05-10T05:56:19.935Z,92308.00
2023-05-10T05:57:19.971Z,92308.00
2023-05-10T05:58:19.895Z,92306.00
2023-05-10T05:59:19.869Z,92306.00
2023-05-10T06:00:20.607Z,92310.00
2023-05-10T06:01:19.845Z,92310.00
2023-05-10T06:02:19.843Z,92308.00
2023-05-10T06:03:19.904Z,92312.00
2023-05-10T06:04:19.773Z,92310.00
2023-05-10T06:05:19.758Z,92310.00
2023-05-10T06:06:19.750Z,92312.00
2023-05-10T06:07:19.716Z,92310.00
2023-05-10T06:08:19.692Z,92310.00
2023-05-10T06:09:19.673Z,92308.00
2023-05-10T06:10:19.647Z,92306.00
2023-05-10T06:11:20.591Z,92304.00
2023-05-10T06:12:19.556Z,92304.00
2023-05-10T06:13:19.537Z,92306.00
2023-05-10T06:14:19.484Z,92306.00
2023-05-10T06:15:19.393Z,92308.00
2023-05-10T06:16:19.351Z,92308.00
2023-05-10T06:17:19.303Z,92310.00
2023-05-10T06:18:19.241Z,92310.00
2023-05-10T06:19:19.193Z,92312.00
2023-05-10T06:20:19.208Z,92313.00
2023-05-10T06:21:19.218Z,92313.00
2023-05-10T06:22:19.253Z,92313.00
2023-05-10T06:23:19.214Z,92313.00
2023-05-10T06:24:19.206Z,92315.00
2023-05-10T06:25:20.121Z,92313.00
2023-05-10T06:26:19.170Z,92313.00
2023-05-10T06:27:19.144Z,92310.00
2023-05-10T06:28:19.123Z,92310.00
2023-05-10T06:29:19.634Z,92313.00
2023-05-10T06:30:19.076Z,92312.00
2023-05-10T06:31:19.073Z,92312.00
2023-05-10T06:32:19.051Z,92315.00
2023-05-10T06:33:19.027Z,92313.00
2023-05-10T06:34:19.027Z,92313.00
2023-05-10T06:35:19.262Z,92315.00
2023-05-10T06:36:19.025Z,92319.00
2023-05-10T06:37:19.052Z,92317.00
2023-05-10T06:38:19.029Z,92323.00
2023-05-10T06:39:19.030Z,92321.00
2023-05-10T06:40:19.030Z,92321.00
2023-05-10T06:41:19.736Z,92317.00
2023-05-10T06:42:19.062Z,92319.00
2023-05-10T06:43:19.066Z,92317.00
2023-05-10T06:44:19.085Z,92317.00
2023-05-10T06:45:19.277Z,92315.00
2023-05-10T06:46:19.098Z,92317.00
2023-05-10T06:47:19.101Z,92319.00
2023-05-10T06:48:19.132Z,92317.00
2023-05-10T06:49:19.094Z,92317.00
2023-05-10T06:50:19.088Z,92317.00
2023-05-10T06:51:19.078Z,92315.00
2023-05-10T06:52:19.051Z,92315.00
2023-05-10T06:53:19.051Z,92312.00
2023-05-10T06:54:19.018Z,92313.00
2023-05-10T06:55:19.127Z,92313.00
2023-05-10T06:56:18.976Z,92313.00
2023-05-10T06:57:31.396Z,92315.00
2023-05-10T06:58:20.164Z,92317.00
2023-05-10T06:59:19.180Z,92313.00
2023-05-10T07:00:19.359Z,92315.00
2023-05-10T07:01:19.306Z,92313.00
2023-05-10T07:02:19.063Z,92317.00
2023-05-10T07:03:19.064Z,92315.00
2023-05-10T07:04:19.053Z,92313.00
2023-05-10T07:05:19.224Z,92315.00
2023-05-10T07:06:32.159Z,92315.00
2023-05-10T07:07:19.929Z,92315.00
2023-05-10T07:08:19.637Z,92315.00
2023-05-10T07:09:18.789Z,92313.00
2023-05-10T07:10:18.736Z,92313.00
2023-05-10T07:11:18.687Z,92313.00
2023-05-10T07:12:18.669Z,92315.00
2023-05-10T07:13:18.672Z,92315.00
2023-05-10T07:14:18.554Z,92317.00
2023-05-10T07:15:18.715Z,92315.00
2023-05-10T07:16:18.518Z,92317.00
2023-05-10T07:17:18.479Z,92317.00
2023-05-10T07:18:18.412Z,92317.00
2023-05-10T07:19:18.321Z,92319.00
2023-05-10T07:20:18.270Z,92319.00
2023-05-10T07:21:18.270Z,92319.00
2023-05-10T07:22:18.184Z,92319.00
2023-05-10T07:23:18.111Z,92317.00
2023-05-10T07:24:18.061Z,92315.00
2023-05-10T07:25:18.132Z,92317.00
2023-05-10T07:26:17.931Z,92321.00
2023-05-10T07:27:17.902Z,92323.00
2023-05-10T07:28:17.895Z,92323.00
2023-05-10T07:29:17.856Z,92325.00
2023-05-10T07:30:17.835Z,92323.00
2023-05-10T07:31:17.763Z,92323.00
2023-05-10T07:32:17.770Z,92319.00
2023-05-10T07:33:17.695Z,92323.00
2023-05-10T07:34:17.633Z,92321.00
2023-05-10T07:35:17.753Z,92323.00
2023-05-10T07:36:17.537Z,92319.00
2023-05-10T07:37:17.547Z,92321.00
2023-05-10T07:38:17.548Z,92321.00
2023-05-10T07:39:26.454Z,92319.00
2023-05-10T07:40:18.480Z,92321.00
2023-05-10T07:41:17.408Z,92321.00
2023-05-10T07:42:17.333Z,92319.00
2023-05-10T07:43:17.262Z,92321.00
2023-05-10T07:44:17.240Z,92323.00
2023-05-10T07:45:17.269Z,92325.00
2023-05-10T07:46:17.072Z,92323.00
2023-05-10T07:47:16.979Z,92323.00
2023-05-10T07:48:16.926Z,92321.00
2023-05-10T07:49:16.933Z,92323.00
2023-05-10T07:50:16.916Z,92321.00
2023-05-10T07:51:16.878Z,92319.00
2023-05-10T07:52:16.894Z,92321.00
2023-05-10T07:53:16.853Z,92321.00
2023-05-10T07:54:16.837Z,92321.00
2023-05-10T07:55:17.074Z,92317.00
2023-05-10T07:56:16.817Z,92321.00
2023-05-10T07:57:16.804Z,92319.00
2023-05-10T07:58:16.778Z,92319.00
2023-05-10T07:59:16.754Z,92319.00
2023-05-10T08:00:16.728Z,92319.00
2023-05-10T08:01:16.691Z,92317.00
2023-05-10T08:02:16.747Z,92317.00
2023-05-10T08:03:16.744Z,92315.00
2023-05-10T08:04:16.673Z,92317.00
2023-05-10T08:05:16.757Z,92317.00
2023-05-10T08:06:16.518Z,92319.00
2023-05-10T08:07:16.481Z,92317.00
2023-05-10T08:08:16.457Z,92315.00
2023-05-10T08:09:16.434Z,92319.00
2023-05-10T08:10:16.402Z,92323.00
2023-05-10T08:11:16.456Z,92319.00
2023-05-10T08:12:16.350Z,92321.00
2023-05-10T08:13:16.318Z,92317.00
2023-05-10T08:14:16.294Z,92321.00
2023-05-10T08:15:16.428Z,92319.00
2023-05-10T08:16:16.269Z,92319.00
2023-05-10T08:17:16.665Z,92317.00
2023-05-10T08:18:16.192Z,92317.00
2023-05-10T08:19:16.141Z,92319.00
2023-05-10T08:20:16.082Z,92317.00
2023-05-10T08:21:16.048Z,92319.00
2023-05-10T08:22:16.008Z,92317.00
2023-05-10T08:23:15.927Z,92317.00
2023-05-10T08:24:15.896Z,92313.00
2023-05-10T08:25:16.079Z,92317.00
2023-05-10T08:26:15.795Z,92317.00
2023-05-10T08:27:15.745Z,92313.00
2023-05-10T08:28:15.696Z,92315.00
2023-05-10T08:29:15.652Z,92317.00
2023-05-10T08:30:15.614Z,92315.00
2023-05-10T08:31:15.600Z,92319.00
2023-05-10T08:32:15.560Z,92317.00
2023-05-10T08:33:15.606Z,92317.00
2023-05-10T08:34:15.490Z,92317.00
2023-05-10T08:35:15.647Z,92317.00
2023-05-10T08:36:15.410Z,92317.00
2023-05-10T08:37:15.392Z,92315.00
2023-05-10T08:38:15.380Z,92315.00
2023-05-10T08:39:23.325Z,92317.00
2023-05-10T08:40:16.330Z,92317.00
2023-05-10T08:41:15.234Z,92317.00
2023-05-10T08:42:15.179Z,92319.00
2023-05-10T08:43:15.116Z,92319.00
2023-05-10T08:44:15.056Z,92317.00
2023-05-10T08:45:15.048Z,92315.00
2023-05-10T08:46:14.949Z,92313.00
2023-05-10T08:47:14.877Z,92315.00
2023-05-10T08:48:14.796Z,92315.00
2023-05-10T08:49:14.708Z,92315.00
2023-05-10T08:50:14.652Z,92317.00
2023-05-10T08:51:14.605Z,92315.00
2023-05-10T08:52:14.570Z,92317.00
2023-05-10T08:53:14.542Z,92319.00
2023-05-10T08:54:14.503Z,92323.00
2023-05-10T08:55:14.661Z,92323.00
2023-05-10T08:56:14.424Z,92317.00
2023-05-10T08:57:14.377Z,92319.00
2023-05-10T08:58:14.347Z,92321.00
2023-05-10T08:59:14.304Z,92321.00
2023-05-10T09:00:14.250Z,92321.00
2023-05-10T09:01:14.215Z,92321.00
2023-05-10T09:02:14.761Z,92319.00
2023-05-10T09:03:14.121Z,92321.00
2023-05-10T09:04:14.134Z,92321.00
2023-05-10T09:05:14.052Z,92325.00
2023-05-10T09:06:13.950Z,92325.00
2023-05-10T09:07:13.898Z,92327.00
2023-05-10T09:08:13.940Z,92327.00
2023-05-10T09:09:13.916Z,92329.00
2023-05-10T09:10:13.842Z,92329.00
2023-05-10T09:11:13.798Z,92333.00
2023-05-10T09:12:13.710Z,92333.00
2023-05-10T09:13:13.661Z,92333.00
2023-05-10T09:14:13.602Z,92335.00
2023-05-10T09:15:13.550Z,92335.00
2023-05-10T09:16:21.022Z,92335.00
2023-05-10T09:17:14.475Z,92352.00
2023-05-10T09:18:13.375Z,92341.00
2023-05-10T09:19:13.330Z,92339.00
2023-05-10T09:20:13.146Z,92341.00
2023-05-10T09:21:13.104Z,92341.00
2023-05-10T09:22:12.986Z,92350.00
2023-05-10T09:23:12.931Z,92352.00
2023-05-10T09:24:12.852Z,92343.00
2023-05-10T09:25:12.776Z,92352.00
2023-05-10T09:26:12.737Z,92358.00
2023-05-10T09:27:12.625Z,92356.00
2023-05-10T09:28:12.576Z,92354.00
2023-05-10T09:29:12.518Z,92356.00
2023-05-10T09:30:12.469Z,92352.00
2023-05-10T09:31:12.546Z,92354.00
2023-05-10T09:32:13.781Z,92356.00
2023-05-10T09:33:12.472Z,92358.00
2023-05-10T09:34:13.231Z,92358.00
2023-05-10T09:35:12.514Z,92360.00
2023-05-10T09:36:12.461Z,92360.00
2023-05-10T09:37:12.422Z,92362.00
2023-05-10T09:38:13.261Z,92364.00
2023-05-10T09:39:12.326Z,92362.00
2023-05-10T09:40:12.297Z,92364.00
2023-05-10T09:41:12.283Z,92366.00
2023-05-10T09:42:12.248Z,92364.00
2023-05-10T09:43:12.196Z,92366.00
2023-05-10T09:44:12.117Z,92362.00
2023-05-10T09:45:12.085Z,92366.00
2023-05-10T09:46:12.096Z,92364.00
2023-05-10T09:47:12.016Z,92364.00
2023-05-10T09:48:11.983Z,92364.00
2023-05-10T09:49:11.931Z,92364.00
2023-05-10T09:50:11.857Z,92362.00
2023-05-10T09:51:11.836Z,92360.00
2023-05-10T09:52:11.793Z,92360.00
2023-05-10T09:53:11.753Z,92364.00
2023-05-10T09:54:11.727Z,92360.00
2023-05-10T09:55:12.191Z,92360.00
2023-05-10T09:56:11.595Z,92362.00
2023-05-10T09:57:11.550Z,92362.00
2023-05-10T09:58:11.863Z,92362.00
2023-05-10T09:59:11.467Z,92358.00
2023-05-10T10:00:11.397Z,92358.00
2023-05-10T10:01:11.377Z,92360.00
2023-05-10T10:02:11.296Z,92360.00
2023-05-10T10:03:11.275Z,92360.00
2023-05-10T10:04:11.219Z,92360.00
2023-05-10T10:05:11.201Z,92358.00
2023-05-10T10:06:18.811Z,92360.00
2023-05-10T10:07:12.054Z,92362.00
2023-05-10T10:08:10.994Z,92360.00
2023-05-10T10:09:10.937Z,92358.00
2023-05-10T10:10:10.879Z,92362.00
2023-05-10T10:11:10.821Z,92364.00
2023-05-10T10:12:10.755Z,92366.00
2023-05-10T10:13:10.705Z,92364.00
2023-05-10T10:14:10.645Z,92366.00
2023-05-10T10:15:10.596Z,92366.00
2023-05-10T10:16:10.613Z,92366.00
2023-05-10T10:17:10.536Z,92368.00
2023-05-10T10:18:10.528Z,92368.00
2023-05-10T10:19:10.361Z,92370.00
2023-05-10T10:20:12.130Z,92366.00
2023-05-10T10:21:11.208Z,92366.00
2023-05-10T10:22:10.164Z,92366.00
2023-05-10T10:23:10.107Z,92368.00
2023-05-10T10:24:10.067Z,92370.00
2023-05-10T10:25:09.991Z,92368.00
2023-05-10T10:26:09.953Z,92372.00
2023-05-10T10:27:09.878Z,92368.00
2023-05-10T10:28:09.866Z,92368.00
2023-05-10T10:29:09.756Z,92368.00
2023-05-10T10:30:09.702Z,92370.00
2023-05-10T10:31:09.769Z,92366.00
2023-05-10T10:32:09.568Z,92368.00
2023-05-10T10:33:20.212Z,92364.00
2023-05-10T10:34:10.732Z,92368.00
2023-05-10T10:35:09.397Z,92366.00
2023-05-10T10:36:10.204Z,92368.00
2023-05-10T10:37:09.278Z,92368.00
2023-05-10T10:38:09.218Z,92366.00
2023-05-10T10:39:09.159Z,92366.00
2023-05-10T10:40:09.123Z,92366.00
2023-05-10T10:41:09.049Z,92368.00
2023-05-10T10:42:09.000Z,92366.00
2023-05-10T10:43:08.925Z,92368.00
2023-05-10T10:44:08.938Z,92368.00
2023-05-10T10:45:08.832Z,92372.00
2023-05-10T10:46:08.763Z,92372.00
2023-05-10T10:47:08.749Z,92368.00
2023-05-10T10:48:08.757Z,92368.00
2023-05-10T10:49:08.647Z,92370.00
2023-05-10T10:50:08.560Z,92368.00
2023-05-10T10:51:10.094Z,92368.00
2023-05-10T10:52:08.426Z,92368.00
2023-05-10T10:53:08.382Z,92368.00
2023-05-10T10:54:08.315Z,92372.00
2023-05-10T10:55:08.257Z,92366.00
2023-05-10T10:56:08.192Z,92368.00
2023-05-10T10:57:08.142Z,92368.00
2023-05-10T10:58:08.126Z,92372.00
2023-05-10T10:59:08.099Z,92370.00
2023-05-10T11:00:08.071Z,92370.00
2023-05-10T11:01:08.102Z,92370.00
2023-05-10T11:02:08.000Z,92372.00
2023-05-10T11:03:08.198Z,92372.00
2023-05-10T11:04:08.061Z,92374.00
2023-05-10T11:05:07.905Z,92374.00
2023-05-10T11:06:07.892Z,92372.00
2023-05-10T11:07:07.839Z,92372.00
2023-05-10T11:08:07.815Z,92372.00
2023-05-10T11:09:07.812Z,92376.00
2023-05-10T11:10:07.765Z,92374.00
2023-05-10T11:11:07.767Z,92374.00
2023-05-10T11:12:07.717Z,92372.00
2023-05-10T11:13:07.703Z,92370.00
2023-05-10T11:14:07.672Z,92374.00
2023-05-10T11:15:07.644Z,92370.00
2023-05-10T11:16:07.723Z,92368.00
2023-05-10T11:17:07.735Z,92368.00
2023-05-10T11:18:07.597Z,92368.00
2023-05-10T11:19:07.695Z,92370.00
2023-05-10T11:20:07.515Z,92372.00
2023-05-10T11:21:07.502Z,92364.00
2023-05-10T11:22:07.476Z,92372.00
2023-05-10T11:23:07.445Z,92370.00
2023-05-10T11:24:07.431Z,92372.00
2023-05-10T11:25:07.390Z,92368.00
2023-05-10T11:26:07.376Z,92368.00
2023-05-10T11:27:07.350Z,92368.00
2023-05-10T11:28:07.329Z,92366.00
2023-05-10T11:29:07.313Z,92366.00
2023-05-10T11:30:07.306Z,92368.00
2023-05-10T11:31:07.354Z,92364.00
2023-05-10T11:32:07.260Z,92362.00
2023-05-10T11:33:07.261Z,92364.00
2023-05-10T11:34:07.214Z,92366.00
2023-05-10T11:35:07.197Z,92364.00
2023-05-10T11:36:07.181Z,92364.00
2023-05-10T11:37:07.166Z,92366.00
2023-05-10T11:38:07.154Z,92366.00
2023-05-10T11:39:07.121Z,92366.00
2023-05-10T11:40:07.118Z,92364.00
2023-05-10T11:41:07.096Z,92366.00
2023-05-10T11:42:07.060Z,92366.00
2023-05-10T11:43:07.055Z,92370.00
2023-05-10T11:44:07.043Z,92368.00